Ava, New York
Current Conditions -  °F | °C
As of 1:33 PM on Wednesday 26 Nov 2014 (Local Time) from KRME Reporting Station
Moderate Snow Moderate Snow  
Wind Chill: 31°   Ceiling: 1100
Heat Index: 31°   Visibility: 0.5mi
Dew Point: 31°   Wind: 0mph
Humidity: 100%   Direction: NA
Pressure: 30.13"   Gusts: NA
Location:  43.42°N, 75.48°W
Report Text: KRME 261833Z 00000KT 1/2SM SN FZFG VV011 M01/M01 A3013 RMK AO2 P0004 T10061006 RVRNO
Loading
Personal Weather Stations






























Interactive Weather Map New forecast layout! Learn more

10-Day Weather Forecast

Advertisements
Track Severe Weather on mobile